createdAt,value
2018-09-11T00:01:54.272Z,95209.05
2018-09-11T00:04:23.064Z,95206.70
2018-09-11T00:06:52.093Z,95210.43
2018-09-11T00:09:20.765Z,95214.57
2018-09-11T00:11:49.425Z,95215.78
2018-09-11T00:14:18.211Z,95217.52
2018-09-11T00:16:47.037Z,95216.27
2018-09-11T00:19:15.746Z,95216.98
2018-09-11T00:21:44.406Z,95212.63
2018-09-11T00:24:13.135Z,95214.14
2018-09-11T00:26:41.878Z,95210.99
2018-09-11T00:29:10.582Z,95204.80
2018-09-11T00:31:39.248Z,95200.45
2018-09-11T00:34:08.052Z,95201.48
2018-09-11T00:36:36.743Z,95199.95
2018-09-11T00:39:06.228Z,95197.25
2018-09-11T00:41:34.856Z,95195.72
2018-09-11T00:44:03.625Z,95193.92
2018-09-11T00:46:32.324Z,95193.70
2018-09-11T00:49:00.990Z,95194.59
2018-09-11T00:51:29.810Z,95192.19
2018-09-11T00:53:58.455Z,95190.86
2018-09-11T00:56:27.099Z,95191.19
2018-09-11T00:58:55.746Z,95190.56
2018-09-11T01:01:24.380Z,95192.66
2018-09-11T01:03:53.066Z,95195.52
2018-09-11T01:06:21.752Z,95198.55
2018-09-11T01:08:50.466Z,95198.89
2018-09-11T01:11:19.123Z,95195.95
2018-09-11T01:13:47.762Z,95199.62
2018-09-11T01:16:16.414Z,95193.93
2018-09-11T01:18:45.063Z,95199.98
2018-09-11T01:21:13.717Z,95193.84
2018-09-11T01:23:42.350Z,95199.46
2018-09-11T01:26:11.015Z,95200.16
2018-09-11T01:28:39.659Z,95198.98
2018-09-11T01:31:08.302Z,95203.95
2018-09-11T01:33:37.007Z,95203.41
2018-09-11T01:36:05.798Z,95198.73
2018-09-11T01:38:34.547Z,95206.56
2018-09-11T01:41:03.250Z,95204.30
2018-09-11T01:43:31.914Z,95201.52
2018-09-11T01:46:00.562Z,95200.00
2018-09-11T01:48:29.167Z,95202.75
2018-09-11T01:50:57.867Z,95197.75
2018-09-11T01:53:26.517Z,95203.50
2018-09-11T01:55:55.202Z,95197.98
2018-09-11T01:58:23.827Z,95195.47
2018-09-11T02:00:52.647Z,95198.58
2018-09-11T02:03:21.271Z,95199.89
2018-09-11T02:05:49.960Z,95199.17
2018-09-11T02:08:18.587Z,95200.56
2018-09-11T02:10:47.241Z,95201.33
2018-09-11T02:13:15.917Z,95201.69
2018-09-11T02:15:44.597Z,95203.41
2018-09-11T02:18:13.242Z,95202.92
2018-09-11T02:20:41.935Z,95206.41
2018-09-11T02:23:10.614Z,95212.02
2018-09-11T02:25:39.399Z,95212.16
2018-09-11T02:28:08.074Z,95216.89
2018-09-11T02:30:36.722Z,95216.36
2018-09-11T02:33:05.490Z,95216.65
2018-09-11T02:35:34.183Z,95222.33
2018-09-11T02:38:02.794Z,95216.84
2018-09-11T02:40:31.454Z,95219.39
2018-09-11T02:43:00.084Z,95222.64
2018-09-11T02:45:28.747Z,95217.20
2018-09-11T02:47:57.477Z,95221.77
2018-09-11T02:50:26.108Z,95225.58
2018-09-11T02:52:54.851Z,95224.75
2018-09-11T02:55:23.518Z,95232.94
2018-09-11T02:57:52.234Z,95218.98
2018-09-11T03:00:20.876Z,95215.83
2018-09-11T03:02:49.555Z,95216.58
2018-09-11T03:05:18.285Z,95214.64
2018-09-11T03:07:46.937Z,95222.09
2018-09-11T03:10:15.620Z,95218.20
2018-09-11T03:12:44.278Z,95225.88
2018-09-11T03:15:12.952Z,95225.88
2018-09-11T03:17:41.617Z,95228.50
2018-09-11T03:20:10.351Z,95228.14
2018-09-11T03:22:38.991Z,95230.69
2018-09-11T03:25:07.839Z,95228.79
2018-09-11T03:27:36.447Z,95231.08
2018-09-11T03:30:07.559Z,95220.52
2018-09-11T03:32:36.230Z,95228.50
2018-09-11T03:35:05.066Z,95229.89
2018-09-11T03:37:33.741Z,95232.51
2018-09-11T03:40:03.715Z,95232.19
2018-09-11T03:42:32.362Z,95237.23
2018-09-11T03:45:01.052Z,95238.55
2018-09-11T03:47:29.860Z,95242.05
2018-09-11T03:49:58.507Z,95243.00
2018-09-11T03:52:27.324Z,95241.37
2018-09-11T03:54:55.976Z,95245.50
2018-09-11T03:57:24.619Z,95245.11
2018-09-11T03:59:53.263Z,95245.50
2018-09-11T04:02:21.940Z,95248.67
2018-09-11T04:04:50.642Z,95244.03
2018-09-11T04:07:19.376Z,95241.05
2018-09-11T04:09:48.572Z,95245.83
2018-09-11T04:12:17.589Z,95240.05
2018-09-11T04:14:46.275Z,95249.34
2018-09-11T04:17:15.007Z,95251.53
2018-09-11T04:19:43.704Z,95254.11
2018-09-11T04:22:12.403Z,95257.22
2018-09-11T04:24:41.146Z,95255.03
2018-09-11T04:27:09.867Z,95269.21
2018-09-11T04:29:38.517Z,95269.26
2018-09-11T04:32:07.203Z,95267.43
2018-09-11T04:34:35.823Z,95271.12
2018-09-11T04:37:04.477Z,95271.36
2018-09-11T04:39:33.101Z,95275.34
2018-09-11T04:42:01.815Z,95273.03
2018-09-11T04:44:30.513Z,95285.11
2018-09-11T04:46:59.148Z,95284.19
2018-09-11T04:49:27.831Z,95281.88
2018-09-11T04:51:56.498Z,95283.95
2018-09-11T04:54:25.188Z,95284.50
2018-09-11T04:56:54.007Z,95282.56
2018-09-11T04:59:22.663Z,95283.55
2018-09-11T05:01:51.370Z,95287.17
2018-09-11T05:04:20.063Z,95289.50
2018-09-11T05:06:48.739Z,95288.55
2018-09-11T05:09:17.467Z,95295.03
2018-09-11T05:11:46.223Z,95294.84
2018-09-11T05:14:14.892Z,95282.73
2018-09-11T05:16:43.542Z,95283.23
2018-09-11T05:19:12.326Z,95279.50
2018-09-11T05:21:40.923Z,95278.23
2018-09-11T05:24:09.590Z,95284.80
2018-09-11T05:26:38.293Z,95280.98
2018-09-11T05:29:07.304Z,95282.69
2018-09-11T05:31:35.934Z,95283.44
2018-09-11T05:34:05.319Z,95281.34
2018-09-11T05:36:34.047Z,95282.17
2018-09-11T05:39:02.794Z,95278.23
2018-09-11T05:41:31.433Z,95280.47
2018-09-11T05:44:00.123Z,95288.89
2018-09-11T05:46:28.811Z,95289.37
2018-09-11T05:48:57.485Z,95292.66
2018-09-11T05:51:26.238Z,95286.89
2018-09-11T05:53:55.332Z,95289.86
2018-09-11T05:56:23.997Z,95297.85
2018-09-11T05:58:52.701Z,95293.37
2018-09-11T06:01:22.044Z,95294.74
2018-09-11T06:03:50.646Z,95290.72
2018-09-11T06:06:19.302Z,95295.63
2018-09-11T06:08:48.096Z,95287.67
2018-09-11T06:11:16.803Z,95281.67
2018-09-11T06:13:45.566Z,95284.48
2018-09-11T06:16:14.385Z,95285.18
2018-09-11T06:18:43.067Z,95286.41
2018-09-11T06:21:11.791Z,95283.89
2018-09-11T06:23:40.587Z,95281.91
2018-09-11T06:26:09.268Z,95283.95
2018-09-11T06:28:37.917Z,95280.73
2018-09-11T06:31:07.062Z,95280.05
2018-09-11T06:33:35.748Z,95271.12
2018-09-11T06:36:04.470Z,95278.53
2018-09-11T06:38:33.168Z,95277.63
2018-09-11T06:41:01.880Z,95286.36
2018-09-11T06:43:30.524Z,95282.32
2018-09-11T06:45:59.298Z,95288.28
2018-09-11T06:48:27.975Z,95288.30
2018-09-11T06:50:56.729Z,95296.90
2018-09-11T06:53:25.506Z,95290.41
2018-09-11T06:55:54.200Z,95292.70
2018-09-11T06:58:22.822Z,95298.87
2018-09-11T07:00:51.487Z,95304.73
2018-09-11T07:03:20.135Z,95306.25
2018-09-11T07:05:48.753Z,95314.23
2018-09-11T07:08:17.566Z,95307.56
2018-09-11T07:10:46.319Z,95308.78
2018-09-11T07:13:15.082Z,95312.02
2018-09-11T07:15:43.755Z,95307.23
2018-09-11T07:18:12.430Z,95306.72
2018-09-11T07:20:41.075Z,95308.71
2018-09-11T07:23:09.850Z,95298.93
2018-09-11T07:25:38.525Z,95303.54
2018-09-11T07:28:07.198Z,95305.44
2018-09-11T07:30:35.875Z,95297.30
2018-09-11T07:33:04.611Z,95298.89
2018-09-11T07:35:33.249Z,95306.75
2018-09-11T07:38:01.911Z,95301.81
2018-09-11T07:40:30.628Z,95307.78
2018-09-11T07:42:59.298Z,95297.23
2018-09-11T07:45:28.125Z,95303.38
2018-09-11T07:47:56.775Z,95311.94
2018-09-11T07:50:25.472Z,95306.22
2018-09-11T07:52:54.293Z,95307.31
2018-09-11T07:55:22.975Z,95304.77
2018-09-11T07:57:51.581Z,95308.92
2018-09-11T08:00:20.300Z,95314.69
2018-09-11T08:02:48.934Z,95315.42
2018-09-11T08:05:17.641Z,95317.37
2018-09-11T08:07:46.236Z,95313.95
2018-09-11T08:10:14.883Z,95313.77
2018-09-11T08:12:43.496Z,95319.50
2018-09-11T08:15:12.189Z,95323.88
2018-09-11T08:18:08.200Z,95320.14
2018-09-11T08:20:36.951Z,95317.09
2018-09-11T08:23:05.665Z,95322.34
2018-09-11T08:25:34.423Z,95332.41
2018-09-11T08:28:03.118Z,95332.75
2018-09-11T08:30:32.625Z,95331.49
2018-09-11T08:33:02.334Z,95324.98
2018-09-11T08:35:31.091Z,95326.97
2018-09-11T08:38:00.389Z,95324.83
2018-09-11T08:40:29.104Z,95324.47
2018-09-11T08:42:57.785Z,95327.35
2018-09-11T08:45:26.479Z,95321.53
2018-09-11T08:47:55.169Z,95316.05
2018-09-11T08:50:23.927Z,95326.17
2018-09-11T08:52:52.753Z,95332.20
2018-09-11T08:55:21.371Z,95322.50
2018-09-11T08:57:50.035Z,95324.77
2018-09-11T09:00:18.800Z,95314.09
2018-09-11T09:02:47.463Z,95311.48
2018-09-11T09:05:16.108Z,95320.63
2018-09-11T09:07:44.770Z,95323.88
2018-09-11T09:10:13.501Z,95322.83
2018-09-11T09:12:42.081Z,95310.05
2018-09-11T09:15:10.829Z,95313.33
2018-09-11T09:17:39.477Z,95305.09
2018-09-11T09:20:08.208Z,95301.09
2018-09-11T09:22:36.870Z,95306.31
2018-09-11T09:25:06.135Z,95304.66
2018-09-11T09:27:34.817Z,95301.95
2018-09-11T09:30:05.380Z,95295.59
2018-09-11T09:32:33.978Z,95291.77
2018-09-11T09:35:02.635Z,95289.48
2018-09-11T09:37:31.268Z,95289.11
2018-09-11T09:39:59.931Z,95295.73
2018-09-11T09:42:28.542Z,95281.84
2018-09-11T09:44:57.238Z,95275.22
2018-09-11T09:47:25.866Z,95277.97
2018-09-11T09:49:54.489Z,95276.39
2018-09-11T09:52:24.124Z,95274.51
2018-09-11T09:54:52.746Z,95285.27
2018-09-11T09:57:21.351Z,95270.02
2018-09-11T09:59:49.966Z,95270.39
2018-09-11T10:02:23.172Z,95269.33
2018-09-11T10:04:52.605Z,95270.38
2018-09-11T10:07:22.031Z,95263.11
2018-09-11T10:09:50.924Z,95262.77
2018-09-11T10:12:19.610Z,95265.61
2018-09-11T10:14:48.340Z,95267.70
2018-09-11T10:17:16.988Z,95265.58
2018-09-11T10:19:45.692Z,95261.78
2018-09-11T10:22:14.331Z,95272.86
2018-09-11T10:24:42.974Z,95274.73
2018-09-11T10:27:12.240Z,95271.91
2018-09-11T10:29:40.837Z,95264.95
2018-09-11T10:32:09.492Z,95266.66
2018-09-11T10:34:38.096Z,95272.69
2018-09-11T10:37:07.317Z,95276.69
2018-09-11T10:39:35.933Z,95269.64
2018-09-11T10:42:04.579Z,95268.06
2018-09-11T10:44:33.223Z,95275.83
2018-09-11T10:47:01.943Z,95263.01
2018-09-11T10:49:30.838Z,95252.62
2018-09-11T10:51:59.638Z,95261.45
2018-09-11T10:54:28.136Z,95259.48
2018-09-11T10:56:56.985Z,95255.75
2018-09-11T10:59:25.658Z,95242.95
2018-09-11T11:01:54.296Z,95255.79
2018-09-11T11:04:23.007Z,95250.35
2018-09-11T11:06:51.636Z,95248.94
2018-09-11T11:09:20.238Z,95247.27
2018-09-11T11:11:48.871Z,95241.42
2018-09-11T11:14:17.478Z,95257.70
2018-09-11T11:16:46.087Z,95246.40
2018-09-11T11:19:14.719Z,95234.00
2018-09-11T11:21:43.367Z,95249.45
2018-09-11T11:24:12.284Z,95232.94
2018-09-11T11:26:40.937Z,95244.53
2018-09-11T11:29:09.540Z,95228.28
2018-09-11T11:31:38.177Z,95241.11
2018-09-11T11:34:07.317Z,95237.03
2018-09-11T11:36:36.037Z,95233.42
2018-09-11T11:39:06.251Z,95232.13
2018-09-11T11:41:34.852Z,95236.98
2018-09-11T11:44:03.588Z,95235.95
2018-09-11T11:46:32.190Z,95232.47
2018-09-11T11:49:00.898Z,95240.67
2018-09-11T11:51:29.558Z,95236.52
2018-09-11T11:53:58.478Z,95231.52
2018-09-11T11:56:27.113Z,95229.95
2018-09-11T11:58:55.826Z,95220.02
2018-09-11T12:01:24.507Z,95222.64
2018-09-11T12:03:53.090Z,95219.95
2018-09-11T12:06:21.776Z,95219.29
2018-09-11T12:08:50.350Z,95220.51
2018-09-11T12:11:19.075Z,95215.72
2018-09-11T12:13:47.780Z,95213.84
2018-09-11T12:16:16.494Z,95202.81
2018-09-11T12:18:45.252Z,95205.98
2018-09-11T12:21:13.913Z,95206.26
2018-09-11T12:23:42.598Z,95200.84
2018-09-11T12:26:11.225Z,95192.00
2018-09-11T12:28:39.886Z,95190.80
2018-09-11T12:31:08.580Z,95185.24
2018-09-11T12:33:37.323Z,95199.14
2018-09-11T12:36:06.554Z,95190.55
2018-09-11T12:38:35.162Z,95187.41
2018-09-11T12:41:03.825Z,95187.19
2018-09-11T12:43:32.540Z,95192.61
2018-09-11T12:46:01.505Z,95191.07
2018-09-11T12:48:30.108Z,95181.66
2018-09-11T12:50:58.753Z,95183.55
2018-09-11T12:53:27.413Z,95190.73
2018-09-11T12:55:56.084Z,95182.68
2018-09-11T12:58:24.874Z,95187.28
2018-09-11T13:00:53.567Z,95178.20
2018-09-11T13:03:22.168Z,95170.88
2018-09-11T13:05:50.814Z,95174.15
2018-09-11T13:08:19.474Z,95171.76
2018-09-11T13:10:48.186Z,95171.65
2018-09-11T13:13:16.866Z,95172.70
2018-09-11T13:15:45.500Z,95169.22
2018-09-11T13:18:14.222Z,95171.19
2018-09-11T13:20:42.873Z,95172.25
2018-09-11T13:23:11.515Z,95182.52
2018-09-11T13:25:40.154Z,95173.22
2018-09-11T13:28:08.786Z,95170.83
2018-09-11T13:30:37.458Z,95172.63
2018-09-11T13:33:06.652Z,95174.20
2018-09-11T13:35:35.381Z,95175.67
2018-09-11T13:38:04.005Z,95168.31
2018-09-11T13:40:32.807Z,95171.97
2018-09-11T13:43:01.421Z,95167.84
2018-09-11T13:45:30.111Z,95172.75
2018-09-11T13:47:58.801Z,95168.00
2018-09-11T13:50:27.386Z,95167.30
2018-09-11T13:52:56.094Z,95166.30
2018-09-11T13:55:24.668Z,95170.30
2018-09-11T13:57:53.342Z,95172.16
2018-09-11T14:00:21.967Z,95170.16
2018-09-11T14:02:50.582Z,95167.45
2018-09-11T14:05:19.231Z,95161.59
2018-09-11T14:07:47.841Z,95165.38
2018-09-11T14:10:16.618Z,95163.92
2018-09-11T14:12:45.299Z,95155.35
2018-09-11T14:15:13.882Z,95152.80
2018-09-11T14:17:42.573Z,95158.71
2018-09-11T14:20:11.226Z,95156.47
2018-09-11T14:22:39.815Z,95163.11
2018-09-11T14:25:08.560Z,95164.41
2018-09-11T14:27:37.172Z,95161.66
2018-09-11T14:30:07.290Z,95167.28
2018-09-11T14:32:35.940Z,95162.27
2018-09-11T14:35:04.611Z,95168.56
2018-09-11T14:37:33.271Z,95172.71
2018-09-11T14:40:01.891Z,95164.86
2018-09-11T14:42:30.516Z,95178.19
2018-09-11T14:44:59.169Z,95170.48
2018-09-11T14:47:33.135Z,95174.02
2018-09-11T14:50:01.748Z,95175.09
2018-09-11T14:52:30.432Z,95164.91
2018-09-11T14:54:59.124Z,95175.24
2018-09-11T14:57:27.828Z,95150.23
2018-09-11T14:59:56.414Z,95180.92
2018-09-11T15:02:25.048Z,95181.29
2018-09-11T15:04:53.758Z,95176.08
2018-09-11T15:07:22.395Z,95184.86
2018-09-11T15:09:51.079Z,95183.06
2018-09-11T15:12:19.868Z,95184.72
2018-09-11T15:14:48.597Z,95187.39
2018-09-11T15:17:18.043Z,95195.33
2018-09-11T15:19:46.698Z,95181.39
2018-09-11T15:22:15.500Z,95174.94
2018-09-11T15:24:44.106Z,95183.39
2018-09-11T15:27:12.753Z,95174.94
2018-09-11T15:29:41.441Z,95189.30
2018-09-11T15:32:10.080Z,95192.11
2018-09-11T15:34:38.785Z,95190.20
2018-09-11T15:37:07.449Z,95184.91
2018-09-11T15:39:36.073Z,95185.94
2018-09-11T15:42:04.747Z,95187.44
2018-09-11T15:44:33.395Z,95192.78
2018-09-11T15:47:02.092Z,95199.23
2018-09-11T15:49:30.741Z,95194.70
2018-09-11T15:51:59.488Z,95192.55
2018-09-11T15:54:28.293Z,95189.97
2018-09-11T15:56:56.935Z,95192.21
2018-09-11T15:59:25.607Z,95196.01
2018-09-11T16:01:54.294Z,95189.39
2018-09-11T16:04:22.985Z,95193.80
2018-09-11T16:06:51.716Z,95190.09
2018-09-11T16:09:20.425Z,95186.85
2018-09-11T16:11:49.129Z,95194.53
2018-09-11T16:14:18.190Z,95187.86
2018-09-11T16:16:46.854Z,95182.50
2018-09-11T16:19:16.022Z,95188.66
2018-09-11T16:21:44.709Z,95190.45
2018-09-11T16:24:13.306Z,95191.42
2018-09-11T16:26:41.944Z,95189.98
2018-09-11T16:29:10.566Z,95189.86
2018-09-11T16:31:39.202Z,95192.41
2018-09-11T16:34:07.917Z,95193.97
2018-09-11T16:36:36.586Z,95192.41
2018-09-11T16:39:07.904Z,95195.27
2018-09-11T16:41:36.538Z,95202.16
2018-09-11T16:44:05.183Z,95198.66
2018-09-11T16:46:33.862Z,95202.26
2018-09-11T16:49:02.487Z,95208.38
2018-09-11T16:51:31.152Z,95205.98
2018-09-11T16:53:59.815Z,95208.41
2018-09-11T16:56:28.534Z,95214.28
2018-09-11T16:58:57.199Z,95216.36
2018-09-11T17:01:25.892Z,95222.70
2018-09-11T17:03:54.599Z,95220.30
2018-09-11T17:06:23.300Z,95222.05
2018-09-11T17:08:52.054Z,95219.17
2018-09-11T17:11:20.822Z,95218.16
2018-09-11T17:13:49.463Z,95225.92
2018-09-11T17:16:18.256Z,95221.55
2018-09-11T17:18:46.944Z,95220.78
2018-09-11T17:21:15.606Z,95229.86
2018-09-11T17:23:44.380Z,95230.89
2018-09-11T17:26:13.039Z,95239.70
2018-09-11T17:28:41.738Z,95242.46
2018-09-11T17:31:10.478Z,95245.03
2018-09-11T17:33:39.173Z,95243.78
2018-09-11T17:36:07.897Z,95244.88
2018-09-11T17:41:18.744Z,95246.13
2018-09-11T17:43:47.427Z,95261.36
2018-09-11T17:46:16.149Z,95260.91
2018-09-11T17:48:44.989Z,95267.36
2018-09-11T17:51:13.618Z,95270.00
2018-09-11T17:53:42.334Z,95272.62
2018-09-11T17:56:10.990Z,95269.30
2018-09-11T17:58:39.684Z,95270.98
2018-09-11T18:01:08.432Z,95274.03
2018-09-11T18:03:37.175Z,95278.98
2018-09-11T18:06:05.805Z,95290.02
2018-09-11T18:08:34.489Z,95290.08
2018-09-11T18:11:03.185Z,95293.77
2018-09-11T18:13:31.917Z,95294.40
2018-09-11T18:16:00.560Z,95293.52
2018-09-11T18:18:29.216Z,95286.02
2018-09-11T18:20:57.920Z,95293.26
2018-09-11T18:23:26.666Z,95293.26
2018-09-11T18:25:55.357Z,95292.13
2018-09-11T18:28:23.959Z,95293.88
2018-09-11T18:30:52.638Z,95293.61
2018-09-11T18:33:21.292Z,95293.44
2018-09-11T18:35:49.991Z,95306.44
2018-09-11T18:38:18.641Z,95299.97
2018-09-11T18:40:47.357Z,95298.35
2018-09-11T18:43:16.039Z,95295.90
2018-09-11T18:45:44.780Z,95299.77
2018-09-11T18:48:13.466Z,95308.80
2018-09-11T18:50:42.158Z,95310.70
2018-09-11T18:53:10.866Z,95312.02
2018-09-11T18:55:39.710Z,95311.62
2018-09-11T18:58:08.586Z,95306.84
2018-09-11T19:00:37.279Z,95304.76
2018-09-11T19:03:06.145Z,95314.37
2018-09-11T19:05:34.797Z,95310.83
2018-09-11T19:08:03.868Z,95301.94
2018-09-11T19:10:32.572Z,95307.67
2018-09-11T19:13:01.247Z,95308.85
2018-09-11T19:15:29.946Z,95315.57
2018-09-11T19:17:58.659Z,95316.77
2018-09-11T19:20:27.701Z,95318.20
2018-09-11T19:22:56.818Z,95310.48
2018-09-11T19:25:25.796Z,95313.03
2018-09-11T19:27:54.507Z,95315.14
2018-09-11T19:30:23.539Z,95312.72
2018-09-11T19:32:52.328Z,95318.08
2018-09-11T19:35:20.990Z,95312.31
2018-09-11T19:37:49.792Z,95313.11
2018-09-11T19:40:18.549Z,95315.53
2018-09-11T19:42:47.151Z,95312.94
2018-09-11T19:45:15.899Z,95313.54
2018-09-11T19:47:44.560Z,95314.86
2018-09-11T19:50:13.284Z,95315.70
2018-09-11T19:52:42.051Z,95311.48
2018-09-11T19:55:10.885Z,95313.33
2018-09-11T19:57:39.694Z,95317.28
2018-09-11T20:00:11.163Z,95312.97
2018-09-11T20:02:39.813Z,95312.85
2018-09-11T20:05:08.520Z,95318.23
2018-09-11T20:07:37.156Z,95316.11
2018-09-11T20:10:05.885Z,95318.72
2018-09-11T20:12:34.562Z,95314.39
2018-09-11T20:15:03.309Z,95308.42
2018-09-11T20:17:32.042Z,95315.02
2018-09-11T20:20:00.828Z,95316.62
2018-09-11T20:22:29.516Z,95323.02
2018-09-11T20:24:58.231Z,95321.59
2018-09-11T20:27:26.941Z,95324.11
2018-09-11T20:29:55.624Z,95315.83
2018-09-11T20:32:24.977Z,95320.47
2018-09-11T20:34:53.739Z,95320.48
2018-09-11T20:37:22.505Z,95321.80
2018-09-11T20:39:51.204Z,95324.13
2018-09-11T20:42:19.832Z,95326.57
2018-09-11T20:44:48.536Z,95327.38
2018-09-11T20:47:17.212Z,95323.70
2018-09-11T20:49:46.004Z,95326.04
2018-09-11T20:52:14.870Z,95326.75
2018-09-11T20:54:43.677Z,95322.91
2018-09-11T20:57:12.480Z,95327.16
2018-09-11T20:59:41.674Z,95325.55
2018-09-11T21:02:10.351Z,95330.70
2018-09-11T21:04:39.103Z,95333.04
2018-09-11T21:07:07.801Z,95333.12
2018-09-11T21:09:36.430Z,95329.69
2018-09-11T21:12:05.266Z,95328.59
2018-09-11T21:14:33.963Z,95330.20
2018-09-11T21:17:02.622Z,95326.67
2018-09-11T21:19:31.242Z,95327.16
2018-09-11T21:21:59.890Z,95330.52
2018-09-11T21:24:28.538Z,95330.00
2018-09-11T21:26:57.245Z,95337.09
2018-09-11T21:29:25.943Z,95339.80
2018-09-11T21:31:54.629Z,95339.39
2018-09-11T21:34:23.392Z,95337.89
2018-09-11T21:36:52.225Z,95348.00
2018-09-11T21:39:20.879Z,95340.80
2018-09-11T21:41:49.574Z,95347.70
2018-09-11T21:44:18.980Z,95348.80
2018-09-11T21:46:47.616Z,95349.84
2018-09-11T21:49:16.288Z,95350.73
2018-09-11T21:51:45.023Z,95352.95
2018-09-11T21:54:13.639Z,95354.38
2018-09-11T21:56:42.262Z,95354.69
2018-09-11T21:59:11.356Z,95352.37
2018-09-11T22:01:45.252Z,95347.28
2018-09-11T22:04:13.938Z,95353.16
2018-09-11T22:06:42.621Z,95353.96
2018-09-11T22:09:12.077Z,95360.78
2018-09-11T22:11:41.411Z,95358.41
2018-09-11T22:14:10.613Z,95355.20
2018-09-11T22:16:40.218Z,95356.52
2018-09-11T22:19:08.969Z,95353.36
2018-09-11T22:21:38.166Z,95355.41
2018-09-11T22:24:06.863Z,95363.40
2018-09-11T22:26:35.691Z,95364.30
2018-09-11T22:29:04.426Z,95362.67
2018-09-11T22:31:33.104Z,95364.61
2018-09-11T22:34:02.035Z,95363.88
2018-09-11T22:36:30.767Z,95354.25
2018-09-11T22:38:59.443Z,95368.93
2018-09-11T22:41:28.091Z,95363.97
2018-09-11T22:43:56.760Z,95363.36
2018-09-11T22:46:25.860Z,95359.83
2018-09-11T22:48:54.527Z,95356.18
2018-09-11T22:51:23.154Z,95351.30
2018-09-11T22:53:51.782Z,95355.89
2018-09-11T22:56:20.427Z,95358.84
2018-09-11T22:58:49.034Z,95355.80
2018-09-11T23:01:17.671Z,95355.91
2018-09-11T23:03:46.326Z,95345.50
2018-09-11T23:06:15.038Z,95350.24
2018-09-11T23:08:43.708Z,95348.55
2018-09-11T23:11:12.364Z,95351.29
2018-09-11T23:13:41.011Z,95352.62
2018-09-11T23:16:09.763Z,95355.34
2018-09-11T23:18:38.424Z,95348.82
2018-09-11T23:21:07.243Z,95345.42
2018-09-11T23:23:35.890Z,95346.58
2018-09-11T23:26:04.591Z,95348.47
2018-09-11T23:28:33.222Z,95348.77
2018-09-11T23:31:01.955Z,95345.88
2018-09-11T23:33:30.587Z,95344.45
2018-09-11T23:35:59.206Z,95353.17
2018-09-11T23:38:27.861Z,95360.80
2018-09-11T23:40:56.502Z,95353.48
2018-09-11T23:43:25.249Z,95356.51
2018-09-11T23:45:54.094Z,95347.77
2018-09-11T23:48:22.773Z,95345.39
2018-09-11T23:50:51.378Z,95350.20
2018-09-11T23:53:19.992Z,95344.95
2018-09-11T23:55:48.694Z,95347.20
2018-09-11T23:58:17.358Z,95343.23
